createdAt,value
2023-03-23T15:58:24.048Z,44.65
2023-03-23T16:00:52.392Z,44.69
2023-03-23T16:03:22.175Z,45.01
2023-03-23T16:05:50.791Z,44.37
2023-03-23T16:08:18.502Z,44.28
2023-03-23T16:10:46.237Z,44.56
2023-03-23T16:13:15.389Z,44.68
2023-03-23T16:15:43.237Z,44.84
2023-03-23T16:18:16.110Z,44.58
2023-03-23T16:20:43.890Z,44.98
2023-03-23T16:23:11.583Z,45.10
2023-03-23T16:25:39.242Z,44.72
2023-03-23T16:28:06.921Z,44.96
2023-03-23T16:30:36.294Z,44.90
2023-03-23T16:33:04.406Z,45.43
2023-03-23T16:35:32.090Z,45.36
2023-03-23T16:38:07.020Z,45.24
2023-03-23T16:40:36.469Z,45.47
2023-03-23T16:43:09.238Z,45.43
2023-03-23T16:45:40.984Z,46.04
2023-03-23T16:48:10.342Z,46.24
2023-03-23T16:50:38.165Z,45.80
2023-03-23T16:53:06.587Z,46.12
2023-03-23T16:55:34.251Z,46.13
2023-03-23T16:58:15.411Z,46.50
2023-03-23T17:00:46.590Z,46.31
2023-03-23T17:03:16.083Z,46.56
2023-03-23T17:05:45.120Z,46.74
2023-03-23T17:08:13.180Z,46.85
2023-03-23T17:10:41.640Z,46.87
2023-03-23T17:13:09.452Z,47.09
2023-03-23T17:15:38.123Z,47.04
2023-03-23T17:18:07.476Z,47.18
2023-03-23T17:20:35.255Z,47.21
2023-03-23T17:23:03.053Z,47.14
2023-03-23T17:25:31.577Z,47.37
2023-03-23T17:28:05.894Z,47.37
2023-03-23T17:30:45.351Z,47.64
2023-03-23T17:33:14.471Z,47.34
2023-03-23T17:35:42.917Z,47.68
2023-03-23T17:38:11.009Z,47.75
2023-03-23T17:40:38.727Z,47.79
2023-03-23T17:43:06.943Z,47.98
2023-03-23T17:45:34.609Z,47.98
2023-03-23T17:48:04.576Z,47.92
2023-03-23T17:50:33.721Z,48.14
2023-03-23T17:53:01.560Z,48.40
2023-03-23T17:55:29.263Z,48.47
2023-03-23T17:57:56.953Z,48.65
2023-03-23T18:00:24.755Z,48.69
2023-03-23T18:02:52.561Z,48.75
2023-03-23T18:05:20.446Z,48.90
2023-03-23T18:07:50.063Z,48.99
2023-03-23T18:10:17.876Z,48.55
2023-03-23T18:12:45.638Z,48.94
2023-03-23T18:15:13.389Z,48.95
2023-03-23T18:17:42.159Z,49.05
2023-03-23T18:20:10.190Z,48.95
2023-03-23T18:22:37.959Z,49.04
2023-03-23T18:25:07.381Z,49.00
2023-03-23T18:27:35.127Z,48.91
2023-03-23T18:30:03.287Z,48.93
2023-03-23T18:32:31.040Z,49.02
2023-03-23T18:34:58.815Z,49.16
2023-03-23T18:37:26.613Z,49.42
2023-03-23T18:39:54.501Z,49.44
2023-03-23T18:42:23.535Z,49.31
2023-03-23T18:44:51.251Z,49.33
2023-03-23T18:47:18.966Z,49.83
2023-03-23T18:49:51.020Z,49.47
2023-03-23T18:52:18.769Z,49.53
2023-03-23T18:54:46.663Z,49.63
2023-03-23T18:57:14.533Z,49.52
2023-03-23T18:59:43.606Z,49.58
2023-03-23T19:02:11.741Z,49.78
2023-03-23T19:04:39.470Z,49.60
2023-03-23T19:07:07.486Z,49.74
2023-03-23T19:09:35.265Z,49.81
2023-03-23T19:12:02.984Z,49.79
2023-03-23T19:14:30.832Z,49.72
2023-03-23T19:16:59.969Z,50.00
2023-03-23T19:19:27.743Z,49.86
2023-03-23T19:21:55.466Z,50.12
2023-03-23T19:24:23.588Z,49.83
2023-03-23T19:26:51.691Z,49.77
2023-03-23T19:29:26.717Z,50.31
2023-03-23T19:31:55.311Z,49.95
2023-03-23T19:34:25.004Z,50.02
2023-03-23T19:37:02.006Z,50.16
2023-03-23T19:39:33.349Z,50.12
2023-03-23T19:42:01.128Z,50.25
2023-03-23T19:44:29.138Z,50.30
2023-03-23T19:46:57.563Z,50.16
2023-03-23T19:49:26.981Z,50.13
2023-03-23T19:52:06.394Z,50.16
2023-03-23T19:54:38.540Z,50.42
2023-03-23T19:57:06.346Z,50.34
2023-03-23T19:59:34.082Z,50.72
2023-03-23T20:02:02.267Z,50.64
2023-03-23T20:04:31.698Z,50.65
2023-03-23T20:07:00.460Z,50.83
2023-03-23T20:09:28.512Z,50.62
2023-03-23T20:11:56.476Z,50.52
2023-03-23T20:14:25.724Z,50.53
2023-03-23T20:16:53.919Z,50.63
2023-03-23T20:19:21.996Z,50.74
2023-03-23T20:21:52.357Z,50.76
2023-03-23T20:24:20.671Z,50.89
2023-03-23T20:26:48.410Z,50.84
2023-03-23T20:29:16.451Z,50.79
2023-03-23T20:31:46.215Z,50.80
2023-03-23T20:34:17.151Z,50.95
2023-03-23T20:36:45.819Z,50.74
2023-03-23T20:39:18.990Z,50.50
2023-03-23T20:41:50.405Z,50.87
2023-03-23T20:44:18.678Z,50.69
2023-03-23T20:46:47.143Z,50.99
2023-03-23T20:49:15.885Z,50.85
2023-03-23T20:51:44.739Z,50.91
2023-03-23T20:54:15.190Z,50.96
2023-03-23T20:56:43.014Z,50.72
2023-03-23T20:59:11.472Z,50.92
2023-03-23T21:01:39.919Z,50.97
2023-03-23T21:04:14.716Z,50.52
2023-03-23T21:06:42.560Z,50.79
2023-03-23T21:09:10.372Z,50.94
2023-03-23T21:11:39.523Z,50.95
2023-03-23T21:14:07.510Z,51.18
2023-03-23T21:16:35.358Z,51.49
2023-03-23T21:19:04.007Z,51.76
2023-03-23T21:21:31.836Z,51.66
2023-03-23T21:23:59.578Z,51.78
2023-03-23T21:26:28.601Z,51.72
2023-03-23T21:29:00.589Z,51.65
2023-03-23T21:31:30.501Z,51.73
2023-03-23T21:33:58.803Z,51.96
2023-03-23T21:36:30.324Z,52.09
2023-03-23T21:38:58.015Z,52.12
2023-03-23T21:41:26.984Z,52.04
2023-03-23T21:43:54.684Z,51.84
2023-03-23T21:46:23.765Z,51.89
2023-03-23T21:48:51.920Z,52.03
2023-03-23T21:51:21.599Z,51.96
2023-03-23T21:53:50.078Z,52.26
2023-03-23T21:56:18.075Z,52.14
2023-03-23T21:58:45.774Z,51.89
2023-03-23T22:01:13.866Z,52.06
2023-03-23T22:03:44.250Z,52.38
2023-03-23T22:06:13.387Z,52.03
2023-03-23T22:08:42.693Z,52.13
2023-03-23T22:11:13.534Z,52.10
2023-03-23T22:13:42.147Z,52.17
2023-03-23T22:16:11.233Z,52.23
2023-03-23T22:18:39.105Z,52.27
2023-03-23T22:21:08.399Z,52.20
2023-03-23T22:23:36.184Z,52.19
2023-03-23T22:26:03.999Z,52.12
2023-03-23T22:28:31.920Z,52.19
2023-03-23T22:31:01.711Z,52.33
2023-03-23T22:33:29.704Z,52.09
2023-03-23T22:35:57.468Z,52.41
2023-03-23T22:38:26.719Z,52.49
2023-03-23T22:40:57.685Z,52.50
2023-03-23T22:43:26.942Z,52.36
2023-03-23T22:45:54.866Z,52.44
2023-03-23T22:48:23.112Z,52.47
2023-03-23T22:50:50.992Z,52.59
2023-03-23T22:53:18.842Z,52.13
2023-03-23T22:55:48.720Z,52.38
2023-03-23T22:58:16.653Z,52.20
2023-03-23T23:00:46.411Z,52.48
2023-03-23T23:03:14.330Z,52.63
2023-03-23T23:05:42.586Z,52.36
2023-03-23T23:08:12.445Z,52.75
2023-03-23T23:10:40.727Z,52.72
2023-03-23T23:13:10.064Z,52.73
2023-03-23T23:15:37.946Z,52.90
2023-03-23T23:18:06.428Z,52.88
2023-03-23T23:20:34.415Z,53.05
2023-03-23T23:23:02.581Z,53.02
2023-03-23T23:25:30.617Z,52.95
2023-03-23T23:27:58.743Z,53.07
2023-03-23T23:30:30.569Z,52.95
2023-03-23T23:32:58.766Z,52.78
2023-03-23T23:35:26.740Z,52.42
2023-03-23T23:37:54.555Z,52.51
2023-03-23T23:40:22.325Z,52.97
2023-03-23T23:42:51.074Z,52.86
2023-03-23T23:45:19.125Z,52.65
2023-03-23T23:47:48.255Z,52.78
2023-03-23T23:50:16.856Z,52.64
2023-03-23T23:52:45.073Z,52.68
2023-03-23T23:55:15.431Z,52.57
2023-03-23T23:57:43.285Z,52.65
